Time;durP1;ratioP1;P1;durP2;ratioP2;P2;SDS_P1;SDS_P2;PMS_P1;PMS_P2;Temp;Humidity;BMP_temperature;BMP_pressure;BME280_temperature;BME280_humidity;BME280_pressure;Samples;Min_cycle;Max_cycle;Signal;HPM_P1;HPM_P2
2023/05/14 00:01:45;;;;;;;25.48;14.05;;;;;;;;;;5148688;27;20117;-86
2023/05/14 00:04:11;;;;;;;20.50;13.07;;;;;;;;;;5119438;27;20077;-86
2023/05/14 00:06:37;;;;;;;20.15;12.63;;;;;;;;;;5122563;27;20111;-86
2023/05/14 00:09:03;;;;;;;22.27;13.63;;;;;;;;;;5136424;27;20072;-86
2023/05/14 00:11:29;;;;;;;21.73;12.30;;;;;;;;;;5137625;27;20403;-86
2023/05/14 00:13:55;;;;;;;22.52;13.35;;;;;;;;;;5151705;27;20771;-86
2023/05/14 00:16:22;;;;;;;24.33;14.40;;;;;;;;;;5150966;27;20041;-80
2023/05/14 00:18:48;;;;;;;21.48;12.85;;;;;;;;;;5137369;27;20503;-80
2023/05/14 00:21:14;;;;;;;21.90;13.27;;;;;;;;;;5136327;27;20047;-78
2023/05/14 00:23:40;;;;;;;21.00;13.90;;;;;;;;;;5135748;27;20099;-79
2023/05/14 00:26:06;;;;;;;23.65;13.45;;;;;;;;;;5127141;27;20114;-79
2023/05/14 00:28:32;;;;;;;23.33;13.07;;;;;;;;;;5155330;27;20480;-86
2023/05/14 00:30:58;;;;;;;21.05;14.27;;;;;;;;;;5120292;27;20039;-86
2023/05/14 00:33:24;;;;;;;26.13;14.25;;;;;;;;;;5105416;27;20050;-86
2023/05/14 00:35:50;;;;;;;21.45;13.05;;;;;;;;;;5114737;27;20050;-86
2023/05/14 00:38:18;;;;;;;26.98;13.95;;;;;;;;;;5130513;27;20121;-78
2023/05/14 00:40:49;;;;;;;23.67;12.98;;;;;;;;;;5122225;27;20043;-78
2023/05/14 00:43:16;;;;;;;21.52;12.25;;;;;;;;;;5133152;27;20045;-85
2023/05/14 00:45:42;;;;;;;18.52;11.73;;;;;;;;;;5133218;27;20039;-86
2023/05/14 00:48:08;;;;;;;21.13;12.23;;;;;;;;;;5130510;27;20047;-85
2023/05/14 00:50:34;;;;;;;18.77;12.77;;;;;;;;;;5122188;27;20057;-86
2023/05/14 00:53:01;;;;;;;20.00;12.65;;;;;;;;;;5107229;27;20411;-86
2023/05/14 00:55:27;;;;;;;20.13;11.30;;;;;;;;;;5135183;27;20129;-86
2023/05/14 00:57:54;;;;;;;20.25;12.25;;;;;;;;;;5118070;27;20038;-86
2023/05/14 01:00:20;;;;;;;19.77;11.45;;;;;;;;;;5109815;27;20125;-86
2023/05/14 01:02:46;;;;;;;20.42;12.77;;;;;;;;;;5154724;27;20118;-86
2023/05/14 01:05:12;;;;;;;16.45;10.75;;;;;;;;;;5113263;27;20043;-86
2023/05/14 01:08:04;;;;;;;21.80;12.40;;;;;;;;;;5126298;27;20035;-86
2023/05/14 01:10:45;;;;;;;19.60;12.40;;;;;;;;;;5143471;27;20043;-86
2023/05/14 01:13:19;;;;;;;25.27;13.40;;;;;;;;;;5145605;27;20037;-85
2023/05/14 01:15:47;;;;;;;19.15;12.23;;;;;;;;;;5128662;27;20034;-86
2023/05/14 01:18:14;;;;;;;18.52;10.82;;;;;;;;;;5130607;27;20497;-85
2023/05/14 01:20:40;;;;;;;20.58;11.70;;;;;;;;;;5116390;27;20043;-86
2023/05/14 01:23:06;;;;;;;18.90;11.32;;;;;;;;;;5126125;27;20034;-85
2023/05/14 01:25:32;;;;;;;19.48;11.68;;;;;;;;;;5115430;27;20074;-80
2023/05/14 01:28:07;;;;;;;15.38;10.27;;;;;;;;;;5094528;27;20055;-85
2023/05/14 01:30:35;;;;;;;14.13;9.95;;;;;;;;;;5124664;27;20050;-78
2023/05/14 01:33:02;;;;;;;17.73;11.00;;;;;;;;;;5129813;27;20047;-85
2023/05/14 01:35:29;;;;;;;19.10;11.10;;;;;;;;;;5126528;27;20445;-84
2023/05/14 01:37:57;;;;;;;20.13;10.27;;;;;;;;;;5124525;27;20526;-85
2023/05/14 01:40:23;;;;;;;20.52;12.10;;;;;;;;;;5127481;27;20043;-85
2023/05/14 01:42:53;;;;;;;19.40;10.45;;;;;;;;;;5126422;27;20050;-80
2023/05/14 01:45:23;;;;;;;18.83;10.38;;;;;;;;;;5136467;27;20035;-79
2023/05/14 01:47:49;;;;;;;22.30;11.85;;;;;;;;;;5126276;27;20043;-80
2023/05/14 01:50:15;;;;;;;14.57;10.18;;;;;;;;;;5133727;27;20055;-80
2023/05/14 01:52:42;;;;;;;19.40;10.30;;;;;;;;;;5124956;27;20047;-79
2023/05/14 01:55:08;;;;;;;19.35;10.75;;;;;;;;;;5123648;27;20487;-79
2023/05/14 01:57:34;;;;;;;16.88;10.48;;;;;;;;;;5123045;28;20043;-82
2023/05/14 02:00:00;;;;;;;20.10;11.35;;;;;;;;;;5125293;27;20111;-85
2023/05/14 02:02:27;;;;;;;16.83;9.80;;;;;;;;;;5128965;28;20483;-86
2023/05/14 02:04:53;;;;;;;19.58;11.00;;;;;;;;;;5121275;28;20118;-79
2023/05/14 02:07:19;;;;;;;14.70;9.70;;;;;;;;;;5127751;27;20471;-79
2023/05/14 02:09:45;;;;;;;14.90;9.93;;;;;;;;;;5152304;27;20455;-78
2023/05/14 02:12:11;;;;;;;17.27;11.57;;;;;;;;;;5125998;27;20042;-80
2023/05/14 02:14:37;;;;;;;18.98;11.20;;;;;;;;;;5135299;27;20049;-79
2023/05/14 02:17:03;;;;;;;17.88;11.50;;;;;;;;;;5135206;27;20080;-78
2023/05/14 02:19:30;;;;;;;21.05;11.32;;;;;;;;;;5129068;28;20043;-78
2023/05/14 02:21:56;;;;;;;17.40;11.48;;;;;;;;;;5146764;27;20043;-87
2023/05/14 02:24:22;;;;;;;18.48;11.85;;;;;;;;;;5115294;27;20035;-85
2023/05/14 02:26:48;;;;;;;17.15;11.48;;;;;;;;;;5129213;27;20038;-79
2023/05/14 02:29:14;;;;;;;19.98;10.38;;;;;;;;;;5136601;27;20035;-78
2023/05/14 02:31:40;;;;;;;16.83;10.80;;;;;;;;;;5103500;27;20042;-79
2023/05/14 02:34:06;;;;;;;21.25;13.43;;;;;;;;;;5112846;27;20042;-80
2023/05/14 02:36:33;;;;;;;17.90;10.77;;;;;;;;;;5101981;27;20042;-78
2023/05/14 02:39:03;;;;;;;16.42;10.23;;;;;;;;;;5114872;27;20043;-79
2023/05/14 02:41:29;;;;;;;21.65;11.50;;;;;;;;;;5139099;27;20039;-79
2023/05/14 02:43:55;;;;;;;24.73;12.05;;;;;;;;;;5121790;27;20193;-80
2023/05/14 02:46:21;;;;;;;18.90;12.00;;;;;;;;;;5131474;27;20077;-80
2023/05/14 02:48:48;;;;;;;18.23;11.00;;;;;;;;;;5127581;27;20041;-80
2023/05/14 02:51:15;;;;;;;16.83;10.18;;;;;;;;;;5123389;27;20111;-80
2023/05/14 02:53:41;;;;;;;15.90;9.85;;;;;;;;;;5127004;27;20043;-86
2023/05/14 02:56:07;;;;;;;13.45;9.20;;;;;;;;;;5157531;27;20041;-80
2023/05/14 02:58:33;;;;;;;19.25;11.10;;;;;;;;;;5116993;27;20098;-79
2023/05/14 03:00:59;;;;;;;19.70;12.05;;;;;;;;;;5101791;27;20062;-86
2023/05/14 03:03:25;;;;;;;20.17;12.90;;;;;;;;;;5136737;27;20049;-80
2023/05/14 03:05:51;;;;;;;17.20;10.70;;;;;;;;;;5151662;27;20502;-80
2023/05/14 03:08:17;;;;;;;14.52;9.73;;;;;;;;;;5136750;27;20395;-79
2023/05/14 03:10:44;;;;;;;24.48;12.70;;;;;;;;;;5119026;27;20096;-80
2023/05/14 03:13:10;;;;;;;18.30;11.80;;;;;;;;;;5116293;27;20502;-80
2023/05/14 03:15:36;;;;;;;21.48;12.38;;;;;;;;;;5115484;27;20043;-79
2023/05/14 03:18:02;;;;;;;16.58;11.35;;;;;;;;;;5136011;27;20043;-86
2023/05/14 03:20:28;;;;;;;16.90;11.32;;;;;;;;;;5153753;27;20039;-85
2023/05/14 03:22:55;;;;;;;18.73;11.38;;;;;;;;;;5127682;27;20039;-86
2023/05/14 03:25:21;;;;;;;17.73;11.98;;;;;;;;;;5115596;27;20407;-80
2023/05/14 03:27:47;;;;;;;23.42;11.00;;;;;;;;;;5117843;27;20050;-85
2023/05/14 03:30:13;;;;;;;19.80;12.05;;;;;;;;;;5117514;27;20130;-85
2023/05/14 03:32:40;;;;;;;18.83;11.32;;;;;;;;;;5155688;27;20031;-86
2023/05/14 03:35:06;;;;;;;19.63;12.32;;;;;;;;;;5144524;27;20035;-86
2023/05/14 03:37:32;;;;;;;13.82;10.18;;;;;;;;;;5132034;27;20042;-86
2023/05/14 03:39:58;;;;;;;18.83;10.25;;;;;;;;;;5125648;27;20043;-86
2023/05/14 03:42:25;;;;;;;18.33;12.18;;;;;;;;;;5147579;27;20038;-80
2023/05/14 03:44:52;;;;;;;18.80;11.55;;;;;;;;;;5131783;27;20034;-81
2023/05/14 03:47:18;;;;;;;28.45;13.18;;;;;;;;;;5124189;27;20060;-80
2023/05/14 03:49:44;;;;;;;18.50;11.50;;;;;;;;;;5117523;27;20400;-81
2023/05/14 03:52:10;;;;;;;15.05;11.00;;;;;;;;;;5127105;27;20062;-81
2023/05/14 03:54:37;;;;;;;23.77;13.75;;;;;;;;;;5134799;27;20054;-80
2023/05/14 03:57:03;;;;;;;19.65;11.55;;;;;;;;;;5113793;27;20117;-80
2023/05/14 03:59:29;;;;;;;20.02;12.88;;;;;;;;;;5123334;27;20065;-78
2023/05/14 04:01:55;;;;;;;19.83;12.77;;;;;;;;;;5135806;27;20077;-79
2023/05/14 04:04:21;;;;;;;20.63;11.65;;;;;;;;;;5129382;27;20043;-80
2023/05/14 04:06:48;;;;;;;24.77;12.93;;;;;;;;;;5122995;27;20041;-80
2023/05/14 04:09:14;;;;;;;24.58;13.80;;;;;;;;;;5137704;27;20092;-80
2023/05/14 04:11:40;;;;;;;25.20;13.85;;;;;;;;;;5117555;27;20046;-79
2023/05/14 04:14:06;;;;;;;22.45;12.77;;;;;;;;;;5113742;27;20042;-79
2023/05/14 04:16:32;;;;;;;25.33;13.45;;;;;;;;;;5142380;27;20390;-79
2023/05/14 04:18:59;;;;;;;23.60;13.75;;;;;;;;;;5111287;27;20121;-79
2023/05/14 04:21:25;;;;;;;22.58;12.60;;;;;;;;;;5136859;27;20043;-79
2023/05/14 04:23:52;;;;;;;22.02;13.90;;;;;;;;;;5135350;27;20045;-80
2023/05/14 04:26:18;;;;;;;21.58;12.73;;;;;;;;;;5155117;27;20081;-85
2023/05/14 04:28:44;;;;;;;22.33;13.05;;;;;;;;;;5111008;27;20038;-86
2023/05/14 04:31:10;;;;;;;20.05;12.38;;;;;;;;;;5130414;27;20118;-86
2023/05/14 04:33:36;;;;;;;21.20;12.30;;;;;;;;;;5112309;27;20071;-85
2023/05/14 04:36:03;;;;;;;26.35;12.43;;;;;;;;;;5118145;27;20483;-85
2023/05/14 04:38:30;;;;;;;30.33;14.68;;;;;;;;;;5142917;27;20035;-85
2023/05/14 04:40:57;;;;;;;26.77;13.65;;;;;;;;;;5119602;27;20106;-79
2023/05/14 04:43:23;;;;;;;24.55;13.55;;;;;;;;;;5136768;27;20045;-76
2023/05/14 04:45:50;;;;;;;25.55;12.85;;;;;;;;;;5122914;27;20047;-86
2023/05/14 04:48:16;;;;;;;27.70;13.07;;;;;;;;;;5133742;27;20034;-86
2023/05/14 04:50:43;;;;;;;21.95;12.85;;;;;;;;;;5136602;27;20046;-86
2023/05/14 04:53:09;;;;;;;26.90;14.05;;;;;;;;;;5119776;27;20487;-85
2023/05/14 04:55:35;;;;;;;18.58;12.35;;;;;;;;;;5125015;27;20157;-78
2023/05/14 04:58:01;;;;;;;21.38;13.05;;;;;;;;;;5136264;27;20049;-87
2023/05/14 05:00:28;;;;;;;22.38;13.10;;;;;;;;;;5146712;27;20381;-86
2023/05/14 05:02:54;;;;;;;23.23;12.90;;;;;;;;;;5128965;27;20068;-86
2023/05/14 05:05:20;;;;;;;23.20;12.60;;;;;;;;;;5117048;27;20073;-86
2023/05/14 05:07:46;;;;;;;24.73;12.65;;;;;;;;;;5127515;27;20102;-86
2023/05/14 05:10:12;;;;;;;21.67;11.35;;;;;;;;;;5131139;27;20073;-87
2023/05/14 05:12:38;;;;;;;24.88;13.32;;;;;;;;;;5136768;27;20043;-86
2023/05/14 05:15:05;;;;;;;19.02;11.40;;;;;;;;;;5123976;27;20187;-86
2023/05/14 05:17:31;;;;;;;21.80;11.40;;;;;;;;;;5109575;27;20049;-78
2023/05/14 05:19:57;;;;;;;22.90;12.75;;;;;;;;;;5125783;27;20043;-79
2023/05/14 05:22:23;;;;;;;24.90;12.38;;;;;;;;;;5123705;27;20400;-80
2023/05/14 05:24:49;;;;;;;23.08;10.82;;;;;;;;;;5127715;27;20038;-78
2023/05/14 05:27:15;;;;;;;18.40;9.85;;;;;;;;;;5133198;27;20041;-78
2023/05/14 05:29:41;;;;;;;20.85;10.02;;;;;;;;;;5134263;27;20510;-78
2023/05/14 05:32:08;;;;;;;17.08;9.48;;;;;;;;;;5117495;27;20073;-78
2023/05/14 05:34:35;;;;;;;20.38;9.77;;;;;;;;;;5125220;27;20039;-79
2023/05/14 05:37:01;;;;;;;18.90;8.55;;;;;;;;;;5141323;27;20050;-79
2023/05/14 05:39:33;;;;;;;19.90;8.50;;;;;;;;;;5130479;27;20114;-79
2023/05/14 05:42:00;;;;;;;14.40;9.15;;;;;;;;;;5135460;27;20043;-78
2023/05/14 05:44:26;;;;;;;16.35;8.20;;;;;;;;;;5113896;27;20544;-77
2023/05/14 05:46:52;;;;;;;20.10;9.32;;;;;;;;;;5125909;27;20502;-79
2023/05/14 05:49:18;;;;;;;17.92;7.63;;;;;;;;;;5113325;28;20035;-79
2023/05/14 05:51:44;;;;;;;23.40;9.30;;;;;;;;;;5125565;27;20051;-77
2023/05/14 05:54:10;;;;;;;19.42;8.40;;;;;;;;;;5149864;27;20043;-77
2023/05/14 05:56:36;;;;;;;14.80;7.78;;;;;;;;;;5145876;27;20031;-79
2023/05/14 05:59:02;;;;;;;15.32;6.88;;;;;;;;;;5140703;27;20043;-78
2023/05/14 06:01:29;;;;;;;17.17;7.95;;;;;;;;;;5119457;27;20075;-77
2023/05/14 06:03:55;;;;;;;16.70;8.75;;;;;;;;;;5147292;27;20372;-87
2023/05/14 06:06:21;;;;;;;14.95;7.50;;;;;;;;;;5134117;27;20576;-87
2023/05/14 06:08:47;;;;;;;16.85;8.48;;;;;;;;;;5131731;27;20110;-87
2023/05/14 06:11:14;;;;;;;19.52;8.35;;;;;;;;;;5135515;27;20043;-76
2023/05/14 06:13:40;;;;;;;20.30;8.75;;;;;;;;;;5143315;27;20038;-78
2023/05/14 06:16:06;;;;;;;15.95;7.82;;;;;;;;;;5113752;27;20039;-80
2023/05/14 06:18:32;;;;;;;12.63;7.75;;;;;;;;;;5098877;27;20039;-79
2023/05/14 06:20:59;;;;;;;14.27;7.95;;;;;;;;;;5153384;27;20129;-78
2023/05/14 06:23:25;;;;;;;14.07;7.60;;;;;;;;;;5134540;27;20042;-78
2023/05/14 06:25:51;;;;;;;14.35;8.05;;;;;;;;;;5134599;27;20035;-77
2023/05/14 06:28:17;;;;;;;17.20;8.77;;;;;;;;;;5137323;27;20067;-79
2023/05/14 06:30:43;;;;;;;13.00;7.80;;;;;;;;;;5127758;27;20046;-78
2023/05/14 06:33:12;;;;;;;19.80;8.48;;;;;;;;;;5129457;27;20509;-87
2023/05/14 06:35:38;;;;;;;15.95;8.65;;;;;;;;;;5153945;27;20039;-87
2023/05/14 06:38:04;;;;;;;16.67;8.88;;;;;;;;;;5110318;28;20043;-87
2023/05/14 06:40:31;;;;;;;18.48;7.68;;;;;;;;;;5147401;27;20436;-85
2023/05/14 06:42:57;;;;;;;14.52;6.65;;;;;;;;;;5135084;27;20066;-88
2023/05/14 06:45:23;;;;;;;15.43;7.07;;;;;;;;;;5134557;27;20038;-87
2023/05/14 06:47:49;;;;;;;16.50;7.53;;;;;;;;;;5135213;27;20059;-88
2023/05/14 06:50:15;;;;;;;14.32;7.78;;;;;;;;;;5135122;27;20041;-88
2023/05/14 06:52:43;;;;;;;15.10;7.10;;;;;;;;;;5133431;27;20058;-88
2023/05/14 06:55:09;;;;;;;13.88;6.90;;;;;;;;;;5130003;28;20506;-87
2023/05/14 06:57:36;;;;;;;13.80;6.63;;;;;;;;;;5126153;27;20077;-88
2023/05/14 07:00:02;;;;;;;10.65;6.13;;;;;;;;;;5116885;27;20046;-87
2023/05/14 07:02:28;;;;;;;13.90;6.10;;;;;;;;;;5139935;27;20408;-87
2023/05/14 07:04:54;;;;;;;13.77;6.45;;;;;;;;;;5119321;27;20046;-88
2023/05/14 07:07:20;;;;;;;16.05;6.80;;;;;;;;;;5114430;28;20050;-87
2023/05/14 07:09:47;;;;;;;11.98;5.78;;;;;;;;;;5129080;27;20038;-89
2023/05/14 07:12:13;;;;;;;11.90;6.25;;;;;;;;;;5135446;27;20432;-88
2023/05/14 07:14:39;;;;;;;14.95;6.47;;;;;;;;;;5121285;27;20043;-88
2023/05/14 07:17:05;;;;;;;15.43;6.57;;;;;;;;;;5119830;27;20038;-88
2023/05/14 07:19:31;;;;;;;15.70;6.70;;;;;;;;;;5124365;27;20051;-89
2023/05/14 07:21:57;;;;;;;13.50;6.50;;;;;;;;;;5102231;27;20047;-81
2023/05/14 07:24:23;;;;;;;12.90;6.18;;;;;;;;;;5133573;27;20087;-78
2023/05/14 07:26:50;;;;;;;12.75;5.30;;;;;;;;;;5112457;27;20042;-80
2023/05/14 07:29:16;;;;;;;9.55;5.20;;;;;;;;;;5126239;27;20121;-80
2023/05/14 07:31:42;;;;;;;13.60;5.30;;;;;;;;;;5140737;27;20118;-89
2023/05/14 07:34:09;;;;;;;12.13;5.95;;;;;;;;;;5136189;27;20509;-81
2023/05/14 07:36:36;;;;;;;12.98;6.18;;;;;;;;;;5131485;27;20103;-79
2023/05/14 07:39:02;;;;;;;12.23;6.63;;;;;;;;;;5137696;27;20039;-79
2023/05/14 07:41:28;;;;;;;13.25;6.25;;;;;;;;;;5127215;27;20070;-87
2023/05/14 07:43:55;;;;;;;14.70;5.90;;;;;;;;;;5156662;27;20046;-82
2023/05/14 07:46:22;;;;;;;9.55;5.40;;;;;;;;;;5123687;27;20082;-81
2023/05/14 07:48:48;;;;;;;9.18;4.88;;;;;;;;;;5156873;27;20487;-81
2023/05/14 07:51:14;;;;;;;10.30;5.28;;;;;;;;;;5137721;27;20111;-77
2023/05/14 07:53:41;;;;;;;8.77;4.57;;;;;;;;;;5113891;27;20085;-81
2023/05/14 07:56:07;;;;;;;11.40;5.13;;;;;;;;;;5134493;27;20035;-80
2023/05/14 07:58:34;;;;;;;10.90;5.10;;;;;;;;;;5128980;27;20039;-77
2023/05/14 08:01:00;;;;;;;9.07;4.70;;;;;;;;;;5116880;27;20110;-83
2023/05/14 08:03:27;;;;;;;10.23;4.88;;;;;;;;;;5124845;27;20372;-89
2023/05/14 08:05:53;;;;;;;9.57;4.15;;;;;;;;;;5133497;27;20094;-88
2023/05/14 08:08:19;;;;;;;11.95;4.53;;;;;;;;;;5136599;27;20035;-88
2023/05/14 08:10:47;;;;;;;11.15;4.55;;;;;;;;;;5105763;27;20050;-88
2023/05/14 08:13:13;;;;;;;9.10;4.50;;;;;;;;;;5120607;27;20039;-86
2023/05/14 08:15:40;;;;;;;11.70;4.88;;;;;;;;;;5153245;27;20386;-88
2023/05/14 08:18:06;;;;;;;10.02;4.03;;;;;;;;;;5129972;27;20047;-90
2023/05/14 08:20:32;;;;;;;7.40;4.47;;;;;;;;;;5117683;27;20087;-90
2023/05/14 08:22:58;;;;;;;12.95;4.32;;;;;;;;;;5137081;27;20052;-89
2023/05/14 08:25:24;;;;;;;10.93;4.30;;;;;;;;;;5118099;27;20081;-82
2023/05/14 08:27:52;;;;;;;9.10;4.10;;;;;;;;;;5110267;27;20502;-79
2023/05/14 08:30:18;;;;;;;9.85;4.07;;;;;;;;;;5133967;27;20078;-90
2023/05/14 08:32:44;;;;;;;10.45;4.45;;;;;;;;;;5118295;27;20050;-90
2023/05/14 08:35:11;;;;;;;10.93;4.10;;;;;;;;;;5133361;27;20073;-89
2023/05/14 08:37:37;;;;;;;8.15;4.10;;;;;;;;;;5137032;27;20035;-89
2023/05/14 08:40:03;;;;;;;8.25;4.07;;;;;;;;;;5143090;27;20485;-91
2023/05/14 08:42:30;;;;;;;9.90;4.30;;;;;;;;;;5126561;27;20038;-79
2023/05/14 08:45:03;;;;;;;7.93;4.03;;;;;;;;;;5137090;27;20046;-87
2023/05/14 08:47:30;;;;;;;9.13;4.38;;;;;;;;;;5134023;27;20036;-86
2023/05/14 08:50:03;;;;;;;10.93;4.85;;;;;;;;;;5117188;27;20218;-87
2023/05/14 08:52:29;;;;;;;7.57;4.10;;;;;;;;;;5123848;27;20488;-89
2023/05/14 08:54:56;;;;;;;9.43;4.50;;;;;;;;;;5149643;27;20031;-87
2023/05/14 08:57:23;;;;;;;11.13;4.63;;;;;;;;;;5126405;27;20035;-80
2023/05/14 08:59:50;;;;;;;9.75;4.55;;;;;;;;;;5122686;27;20092;-81
2023/05/14 09:02:17;;;;;;;8.27;3.97;;;;;;;;;;5137225;27;20506;-89
2023/05/14 09:04:43;;;;;;;15.10;5.07;;;;;;;;;;5141047;27;20057;-81
2023/05/14 09:07:10;;;;;;;15.35;4.63;;;;;;;;;;5099276;27;20387;-87
2023/05/14 09:09:36;;;;;;;10.07;4.78;;;;;;;;;;5115843;27;20068;-87
2023/05/14 09:12:03;;;;;;;8.27;4.50;;;;;;;;;;5130698;27;20376;-86
2023/05/14 09:14:29;;;;;;;10.40;4.75;;;;;;;;;;5126473;27;20122;-83
2023/05/14 09:16:55;;;;;;;10.18;5.32;;;;;;;;;;5105522;27;20495;-85
2023/05/14 09:19:22;;;;;;;10.85;4.88;;;;;;;;;;5136299;27;20111;-90
2023/05/14 09:21:48;;;;;;;11.18;4.97;;;;;;;;;;5121187;27;20035;-90
2023/05/14 09:24:22;;;;;;;13.93;5.45;;;;;;;;;;5122319;27;20034;-91
2023/05/14 09:27:00;;;;;;;12.27;4.97;;;;;;;;;;5140553;27;20050;-82
2023/05/14 09:29:27;;;;;;;12.23;5.28;;;;;;;;;;5098622;27;20038;-78
2023/05/14 09:31:53;;;;;;;9.60;4.82;;;;;;;;;;5129709;27;20529;-82
2023/05/14 09:34:24;;;;;;;10.50;5.28;;;;;;;;;;5114841;27;20046;-80
2023/05/14 09:36:50;;;;;;;8.95;4.95;;;;;;;;;;5098385;27;20043;-82
2023/05/14 09:39:17;;;;;;;11.70;4.95;;;;;;;;;;5134162;27;20046;-81
2023/05/14 09:41:44;;;;;;;9.95;4.85;;;;;;;;;;5118442;27;20047;-80
2023/05/14 09:44:10;;;;;;;9.35;4.93;;;;;;;;;;5136155;27;20479;-82
2023/05/14 09:46:36;;;;;;;10.65;4.60;;;;;;;;;;5118620;27;20449;-79
2023/05/14 09:49:02;;;;;;;10.35;5.88;;;;;;;;;;5135992;27;20035;-80
2023/05/14 09:51:31;;;;;;;9.00;5.30;;;;;;;;;;5135667;27;20136;-83
2023/05/14 09:53:57;;;;;;;11.23;5.07;;;;;;;;;;5120551;27;20046;-80
2023/05/14 09:56:23;;;;;;;13.77;5.40;;;;;;;;;;5140926;27;20114;-81
2023/05/14 09:58:49;;;;;;;9.35;4.57;;;;;;;;;;5122823;27;20071;-81
2023/05/14 10:01:19;;;;;;;9.98;4.97;;;;;;;;;;5154207;27;20050;-80
2023/05/14 10:03:45;;;;;;;11.02;5.38;;;;;;;;;;5135525;27;20039;-81
2023/05/14 10:06:12;;;;;;;10.60;5.20;;;;;;;;;;5123535;28;20071;-87
2023/05/14 10:08:41;;;;;;;9.93;4.97;;;;;;;;;;5129407;28;20541;-84
2023/05/14 10:11:11;;;;;;;7.97;4.60;;;;;;;;;;5129631;27;20122;-87
2023/05/14 10:13:38;;;;;;;12.05;4.97;;;;;;;;;;5125444;27;20411;-82
2023/05/14 10:16:11;;;;;;;11.13;4.65;;;;;;;;;;5139679;27;20046;-80
2023/05/14 10:18:42;;;;;;;8.68;4.60;;;;;;;;;;5124055;27;20031;-79
2023/05/14 10:21:09;;;;;;;7.55;4.55;;;;;;;;;;5135286;27;20039;-80
2023/05/14 10:23:36;;;;;;;10.60;5.13;;;;;;;;;;5135395;27;20035;-80
2023/05/14 10:26:03;;;;;;;11.93;4.97;;;;;;;;;;5135884;27;20038;-83
2023/05/14 10:28:29;;;;;;;8.73;4.53;;;;;;;;;;5104416;27;20031;-81
2023/05/14 10:30:56;;;;;;;11.27;5.10;;;;;;;;;;5122725;28;20047;-82
2023/05/14 10:33:22;;;;;;;11.30;5.30;;;;;;;;;;5115079;28;20483;-84
2023/05/14 10:36:03;;;;;;;11.40;5.40;;;;;;;;;;5108602;27;20122;-88
2023/05/14 10:38:32;;;;;;;8.63;5.10;;;;;;;;;;5120718;27;20047;-87
2023/05/14 10:41:02;;;;;;;12.57;5.18;;;;;;;;;;5153705;27;20047;-82
2023/05/14 10:43:29;;;;;;;8.90;5.00;;;;;;;;;;5128438;28;20380;-83
2023/05/14 10:45:56;;;;;;;13.40;5.28;;;;;;;;;;5130817;27;20043;-80
2023/05/14 10:48:23;;;;;;;10.20;5.03;;;;;;;;;;5139146;27;20039;-79
2023/05/14 10:50:52;;;;;;;10.30;4.97;;;;;;;;;;5157415;27;20499;-82
2023/05/14 10:53:19;;;;;;;9.10;4.60;;;;;;;;;;5137883;27;20058;-88
2023/05/14 10:55:46;;;;;;;10.35;5.22;;;;;;;;;;5136573;27;20480;-84
2023/05/14 10:58:12;;;;;;;9.65;5.32;;;;;;;;;;5132642;27;20601;-87
2023/05/14 11:00:38;;;;;;;10.02;4.85;;;;;;;;;;5121760;27;20047;-85
2023/05/14 11:03:05;;;;;;;8.52;4.20;;;;;;;;;;5139064;27;20528;-86
2023/05/14 11:05:31;;;;;;;9.35;4.72;;;;;;;;;;5139069;27;20474;-80
2023/05/14 11:07:58;;;;;;;8.77;4.18;;;;;;;;;;5128473;27;20043;-80
2023/05/14 11:10:25;;;;;;;9.63;4.80;;;;;;;;;;5120386;27;20047;-82
2023/05/14 11:12:51;;;;;;;9.50;4.90;;;;;;;;;;5113583;27;20096;-82
2023/05/14 11:15:20;;;;;;;10.30;5.13;;;;;;;;;;5132508;27;20043;-86
2023/05/14 11:17:47;;;;;;;11.52;5.25;;;;;;;;;;5138954;27;20043;-89
2023/05/14 11:20:13;;;;;;;9.65;5.50;;;;;;;;;;5125576;27;20047;-87
2023/05/14 11:22:40;;;;;;;9.73;5.00;;;;;;;;;;5137637;27;20045;-87
2023/05/14 11:25:07;;;;;;;8.20;5.10;;;;;;;;;;5138294;27;20050;-86
2023/05/14 11:27:33;;;;;;;11.18;5.40;;;;;;;;;;5138630;27;20039;-84
2023/05/14 11:30:00;;;;;;;9.73;5.25;;;;;;;;;;5142451;27;20094;-82
2023/05/14 11:32:26;;;;;;;9.48;4.88;;;;;;;;;;5138480;27;20057;-84
2023/05/14 11:34:52;;;;;;;10.15;5.32;;;;;;;;;;5121798;27;20481;-86
2023/05/14 11:37:19;;;;;;;8.52;4.70;;;;;;;;;;5126571;27;20070;-78
2023/05/14 11:39:49;;;;;;;8.98;4.50;;;;;;;;;;5157012;27;20448;-84
2023/05/14 11:42:17;;;;;;;10.32;5.03;;;;;;;;;;5138253;27;20396;-89
2023/05/14 11:44:46;;;;;;;11.70;4.70;;;;;;;;;;5138445;27;20039;-86
2023/05/14 11:47:12;;;;;;;9.32;4.50;;;;;;;;;;5138533;27;20047;-85
2023/05/14 11:49:38;;;;;;;11.65;4.85;;;;;;;;;;5122131;27;20039;-83
2023/05/14 11:52:06;;;;;;;10.27;4.55;;;;;;;;;;5125564;27;20050;-88
2023/05/14 11:54:33;;;;;;;7.28;4.05;;;;;;;;;;5157054;27;20038;-86
2023/05/14 11:57:02;;;;;;;8.40;4.30;;;;;;;;;;5130442;27;20110;-82
2023/05/14 11:59:28;;;;;;;8.32;4.82;;;;;;;;;;5130673;27;20387;-83
2023/05/14 12:01:55;;;;;;;6.78;4.43;;;;;;;;;;5120440;27;20390;-86
2023/05/14 12:04:21;;;;;;;9.23;4.40;;;;;;;;;;5138037;27;20043;-82
2023/05/14 12:06:51;;;;;;;7.68;4.43;;;;;;;;;;5134877;27;20047;-81
2023/05/14 12:09:18;;;;;;;9.27;4.15;;;;;;;;;;5145103;27;20038;-82
2023/05/14 12:11:45;;;;;;;8.25;4.53;;;;;;;;;;5154852;27;20159;-86
2023/05/14 12:14:12;;;;;;;13.32;4.10;;;;;;;;;;5125389;27;20077;-85
2023/05/14 12:16:40;;;;;;;8.90;4.47;;;;;;;;;;5138045;27;20043;-82
2023/05/14 12:19:08;;;;;;;8.18;4.57;;;;;;;;;;5137609;27;20054;-79
2023/05/14 12:21:35;;;;;;;8.88;4.40;;;;;;;;;;5156469;27;20047;-82
2023/05/14 12:24:01;;;;;;;7.38;4.30;;;;;;;;;;5137758;27;20375;-82
2023/05/14 12:26:27;;;;;;;7.43;3.92;;;;;;;;;;5138080;27;20153;-87
2023/05/14 12:29:00;;;;;;;7.32;3.90;;;;;;;;;;5137714;27;20050;-83
2023/05/14 12:31:29;;;;;;;8.50;5.20;;;;;;;;;;5138676;27;20418;-83
2023/05/14 12:33:55;;;;;;;7.28;4.25;;;;;;;;;;5118790;27;20498;-82
2023/05/14 12:36:21;;;;;;;8.52;4.53;;;;;;;;;;5109553;27;20039;-87
2023/05/14 12:38:48;;;;;;;7.10;4.15;;;;;;;;;;5156696;27;20034;-82
2023/05/14 12:41:14;;;;;;;8.50;4.85;;;;;;;;;;5131948;27;20392;-85
2023/05/14 12:43:43;;;;;;;8.68;4.90;;;;;;;;;;5147869;27;20043;-90
2023/05/14 12:46:09;;;;;;;7.65;4.22;;;;;;;;;;5138797;27;20517;-90
2023/05/14 12:48:35;;;;;;;7.20;4.40;;;;;;;;;;5119527;27;20537;-86
2023/05/14 12:51:01;;;;;;;8.07;4.30;;;;;;;;;;5121209;27;20054;-87
2023/05/14 12:53:27;;;;;;;6.70;4.18;;;;;;;;;;5112168;27;20039;-88
2023/05/14 12:55:54;;;;;;;6.45;3.90;;;;;;;;;;5121632;27;20039;-87
2023/05/14 12:58:20;;;;;;;8.23;4.90;;;;;;;;;;5119156;27;20391;-85
2023/05/14 13:00:46;;;;;;;10.10;3.72;;;;;;;;;;5131790;27;20070;-87
2023/05/14 13:03:12;;;;;;;7.28;4.22;;;;;;;;;;5096045;28;20119;-87
2023/05/14 13:05:38;;;;;;;7.97;4.03;;;;;;;;;;5093270;27;20066;-88
2023/05/14 13:08:04;;;;;;;6.00;3.92;;;;;;;;;;5101887;27;20039;-89
2023/05/14 13:10:30;;;;;;;9.40;4.03;;;;;;;;;;5134447;27;20415;-88
2023/05/14 13:12:57;;;;;;;9.07;4.13;;;;;;;;;;5097593;28;20032;-89
2023/05/14 13:15:23;;;;;;;6.60;4.10;;;;;;;;;;5114357;27;20035;-88
2023/05/14 13:17:49;;;;;;;5.40;3.85;;;;;;;;;;5129129;27;20079;-85
2023/05/14 13:20:17;;;;;;;9.60;3.80;;;;;;;;;;5132631;27;20039;-89
2023/05/14 13:22:43;;;;;;;6.40;3.80;;;;;;;;;;5132849;27;20077;-87
2023/05/14 13:25:09;;;;;;;5.10;3.35;;;;;;;;;;5126154;27;20515;-86
2023/05/14 13:27:35;;;;;;;6.68;3.58;;;;;;;;;;5125558;27;20479;-87
2023/05/14 13:30:05;;;;;;;6.22;3.90;;;;;;;;;;5118277;27;20487;-89
2023/05/14 13:32:31;;;;;;;6.35;3.85;;;;;;;;;;5115830;27;20553;-89
2023/05/14 13:34:57;;;;;;;5.68;3.42;;;;;;;;;;5132607;27;20073;-86
2023/05/14 13:37:24;;;;;;;9.02;4.07;;;;;;;;;;5122848;27;20044;-89
2023/05/14 13:39:50;;;;;;;8.88;3.85;;;;;;;;;;5113859;27;20510;-87
2023/05/14 13:42:17;;;;;;;6.03;3.65;;;;;;;;;;5133629;27;20039;-84
2023/05/14 13:44:43;;;;;;;5.70;3.40;;;;;;;;;;5132706;27;20038;-82
2023/05/14 13:47:09;;;;;;;6.55;3.80;;;;;;;;;;5124207;27;20057;-81
2023/05/14 13:49:35;;;;;;;6.60;3.50;;;;;;;;;;5109169;27;20087;-81
2023/05/14 13:52:01;;;;;;;8.45;3.75;;;;;;;;;;5118949;27;20489;-84
2023/05/14 13:54:27;;;;;;;8.05;3.42;;;;;;;;;;5115659;28;20058;-84
2023/05/14 13:56:53;;;;;;;7.43;3.40;;;;;;;;;;5132586;27;20080;-90
2023/05/14 13:59:19;;;;;;;6.78;3.80;;;;;;;;;;5095047;28;20090;-86
2023/05/14 14:01:46;;;;;;;6.50;3.65;;;;;;;;;;5109785;28;20492;-86
2023/05/14 14:04:15;;;;;;;8.15;3.40;;;;;;;;;;5112358;28;20403;-83
2023/05/14 14:06:41;;;;;;;7.25;3.22;;;;;;;;;;5128531;28;20047;-86
2023/05/14 14:09:08;;;;;;;6.05;3.20;;;;;;;;;;5124426;28;20164;-82
2023/05/14 14:11:34;;;;;;;5.03;3.40;;;;;;;;;;5113224;28;20405;-80
2023/05/14 14:14:00;;;;;;;6.47;3.22;;;;;;;;;;5133983;27;20121;-80
2023/05/14 14:16:27;;;;;;;6.15;3.25;;;;;;;;;;5119703;28;20040;-81
2023/05/14 14:18:53;;;;;;;6.25;3.65;;;;;;;;;;5116650;27;20046;-86
2023/05/14 14:21:19;;;;;;;5.75;3.10;;;;;;;;;;5125384;27;20040;-83
2023/05/14 14:23:46;;;;;;;6.90;3.20;;;;;;;;;;5133023;27;20492;-83
2023/05/14 14:26:12;;;;;;;8.50;3.30;;;;;;;;;;5136681;27;20043;-81